KDIJ

Driggs-Reed Memorial Airport

Driggs, Idaho, USA
KDIJ 232224Z 2322/2418 36005KT 6SM -RA BR OVC015 FM240300 VRB05KT P6SM SCT015 BKN040 FM241200 18006KT P6SM BKN050 AMD LTD TO CLD VIS AND WIND
Issued Valid From Valid To
Apr-23 @ 22:24 UTC
(30 minutes ago)
Apr-23 @ 22:00 UTC
(54 minutes ago)
Apr-24 @ 18:00 UTC
(in 19 hours)
Apr-23 @ 22:00 to Apr-24 @ 03:00
KDIJ 232224Z 2322/2418 36005KT 6SM -RA BR OVC015
Wind Visibility Clouds Conditions
360° at 5 knots 6 miles
  • Overcast at 1,500' AGL
  • Light Rain
  • Mist
From Apr-24 @ 03:00 to Apr-24 @ 12:00
FM240300 VRB05KT P6SM SCT015 BKN040
Wind Visibility Clouds
Variable at 5 knots Greater than 6 miles
  • Scattered at 1,500' AGL
  • Broken at 4,000' AGL
From Apr-24 @ 12:00 to Apr-24 @ 18:00
FM241200 18006KT P6SM BKN050 AMD LTD TO CLD VIS AND WIND
Wind Visibility Clouds
180° at 6 knots Greater than 6 miles
  • Broken at 5,000' AGL
KDIJ 232224Z 2322/2418 36005KT 6SM -RA BR OVC015 FM240300 VRB05KT P6SM SCT015 BKN040 FM241200 18006KT P6SM BKN050 AMD LTD TO CLD VIS AND WIND
Issued Apr-23 @ 22:24 UTC
(30 minutes ago)
Valid From Apr-23 @ 22:00 UTC
(54 minutes ago)
Valid To Apr-24 @ 18:00 UTC
(in 19 hours)
Apr-23 @ 22:00 - Apr-24 @ 03:00
Wind Visibility
360° at 5 knots 6 miles
Clouds
  • Overcast at 1,500' AGL
Conditions
  • Light Rain
  • Mist
From Apr-24 @ 03:00 - Apr-24 @ 12:00
Wind Visibility
Variable at 5 knots Greater than 6 miles
Clouds
  • Scattered at 1,500' AGL
  • Broken at 4,000' AGL
From Apr-24 @ 12:00 - Apr-24 @ 18:00
Wind Visibility
180° at 6 knots Greater than 6 miles
Clouds
  • Broken at 5,000' AGL